sensor_id;sensor_type;location;lat;lon;timestamp;pressure;altitude;pressure_sealevel;temperature;humidity
27334;BME280;14817;57.104;-2.094;2023-11-19T00:00:08;96966.69;;;9.13;100.00
27334;BME280;14817;57.104;-2.094;2023-11-19T00:02:41;96958.69;;;9.13;100.00
27334;BME280;14817;57.104;-2.094;2023-11-19T00:05:09;96952.28;;;9.14;100.00
27334;BME280;14817;57.104;-2.094;2023-11-19T00:07:39;96949.72;;;9.19;100.00
27334;BME280;14817;57.104;-2.094;2023-11-19T00:10:09;96941.97;;;9.18;100.00
27334;BME280;14817;57.104;-2.094;2023-11-19T00:12:40;96948.00;;;9.25;100.00
27334;BME280;14817;57.104;-2.094;2023-11-19T00:15:10;96934.06;;;9.23;100.00
27334;BME280;14817;57.104;-2.094;2023-11-19T00:17:42;96920.72;;;9.23;100.00
27334;BME280;14817;57.104;-2.094;2023-11-19T00:20:12;96907.16;;;9.25;100.00
27334;BME280;14817;57.104;-2.094;2023-11-19T00:22:40;96894.81;;;9.24;100.00
27334;BME280;14817;57.104;-2.094;2023-11-19T00:25:10;96878.00;;;9.23;100.00
27334;BME280;14817;57.104;-2.094;2023-11-19T00:27:37;96870.22;;;9.22;100.00
27334;BME280;14817;57.104;-2.094;2023-11-19T00:30:05;96864.66;;;9.23;100.00
27334;BME280;14817;57.104;-2.094;2023-11-19T00:32:32;96864.44;;;9.25;100.00
27334;BME280;14817;57.104;-2.094;2023-11-19T00:34:59;96864.44;;;9.25;100.00
27334;BME280;14817;57.104;-2.094;2023-11-19T00:37:26;96884.16;;;9.24;100.00
27334;BME280;14817;57.104;-2.094;2023-11-19T00:39:53;96894.03;;;9.23;100.00
27334;BME280;14817;57.104;-2.094;2023-11-19T00:42:19;96919.56;;;9.31;100.00
27334;BME280;14817;57.104;-2.094;2023-11-19T00:44:50;96935.59;;;9.31;100.00
27334;BME280;14817;57.104;-2.094;2023-11-19T00:47:17;96939.88;;;9.32;100.00
27334;BME280;14817;57.104;-2.094;2023-11-19T00:49:49;96961.13;;;9.27;100.00
27334;BME280;14817;57.104;-2.094;2023-11-19T00:52:18;96973.88;;;9.36;100.00
27334;BME280;14817;57.104;-2.094;2023-11-19T00:54:46;96988.06;;;9.37;100.00
27334;BME280;14817;57.104;-2.094;2023-11-19T00:57:13;96992.13;;;9.39;100.00
27334;BME280;14817;57.104;-2.094;2023-11-19T00:59:43;97008.72;;;9.42;100.00
27334;BME280;14817;57.104;-2.094;2023-11-19T01:02:12;97003.16;;;9.43;100.00
27334;BME280;14817;57.104;-2.094;2023-11-19T01:04:40;97028.34;;;9.35;100.00
27334;BME280;14817;57.104;-2.094;2023-11-19T01:07:07;97054.81;;;9.37;100.00
27334;BME280;14817;57.104;-2.094;2023-11-19T01:09:42;97083.72;;;9.40;100.00
27334;BME280;14817;57.104;-2.094;2023-11-19T01:12:09;97198.78;;;9.38;100.00
27334;BME280;14817;57.104;-2.094;2023-11-19T01:14:37;97167.91;;;9.43;100.00
27334;BME280;14817;57.104;-2.094;2023-11-19T01:17:03;97199.75;;;9.44;100.00
27334;BME280;14817;57.104;-2.094;2023-11-19T01:19:31;97209.84;;;9.42;100.00
27334;BME280;14817;57.104;-2.094;2023-11-19T01:21:59;97217.63;;;9.44;100.00
27334;BME280;14817;57.104;-2.094;2023-11-19T01:24:26;97225.66;;;9.44;100.00
27334;BME280;14817;57.104;-2.094;2023-11-19T01:26:55;97203.00;;;9.46;100.00
27334;BME280;14817;57.104;-2.094;2023-11-19T01:29:24;97186.75;;;9.48;100.00
27334;BME280;14817;57.104;-2.094;2023-11-19T01:31:52;97168.38;;;9.39;100.00
27334;BME280;14817;57.104;-2.094;2023-11-19T01:34:19;97165.13;;;9.37;100.00
27334;BME280;14817;57.104;-2.094;2023-11-19T01:36:47;97156.31;;;9.37;100.00
27334;BME280;14817;57.104;-2.094;2023-11-19T01:39:16;97173.13;;;9.37;100.00
27334;BME280;14817;57.104;-2.094;2023-11-19T01:41:43;97161.88;;;9.35;100.00
27334;BME280;14817;57.104;-2.094;2023-11-19T01:44:12;97162.66;;;9.36;100.00
27334;BME280;14817;57.104;-2.094;2023-11-19T01:46:44;97165.94;;;9.38;100.00
27334;BME280;14817;57.104;-2.094;2023-11-19T01:49:12;97180.34;;;9.37;100.00
27334;BME280;14817;57.104;-2.094;2023-11-19T01:51:42;97165.72;;;9.39;100.00
27334;BME280;14817;57.104;-2.094;2023-11-19T01:54:09;97175.81;;;9.37;100.00
27334;BME280;14817;57.104;-2.094;2023-11-19T01:56:37;97168.00;;;9.36;100.00
27334;BME280;14817;57.104;-2.094;2023-11-19T01:59:08;97178.69;;;9.36;100.00
27334;BME280;14817;57.104;-2.094;2023-11-19T02:01:36;97157.34;;;9.36;100.00
27334;BME280;14817;57.104;-2.094;2023-11-19T02:04:07;97150.38;;;9.35;100.00
27334;BME280;14817;57.104;-2.094;2023-11-19T02:06:34;97140.50;;;9.35;100.00
27334;BME280;14817;57.104;-2.094;2023-11-19T02:09:03;97136.44;;;9.33;100.00
27334;BME280;14817;57.104;-2.094;2023-11-19T02:11:34;97135.38;;;9.34;100.00
27334;BME280;14817;57.104;-2.094;2023-11-19T02:14:01;97140.72;;;9.34;100.00
27334;BME280;14817;57.104;-2.094;2023-11-19T02:16:29;97153.28;;;9.33;100.00
27334;BME280;14817;57.104;-2.094;2023-11-19T02:18:56;97145.47;;;9.32;100.00
27334;BME280;14817;57.104;-2.094;2023-11-19T02:21:22;97141.78;;;9.33;100.00
27334;BME280;14817;57.104;-2.094;2023-11-19T02:23:49;97131.09;;;9.33;100.00
27334;BME280;14817;57.104;-2.094;2023-11-19T02:28:42;97143.41;;;9.34;100.00
27334;BME280;14817;57.104;-2.094;2023-11-19T02:31:10;97163.13;;;9.33;100.00
27334;BME280;14817;57.104;-2.094;2023-11-19T02:33:37;97192.84;;;9.36;100.00
27334;BME280;14817;57.104;-2.094;2023-11-19T02:36:04;97186.28;;;9.39;100.00
27334;BME280;14817;57.104;-2.094;2023-11-19T02:38:31;97231.66;;;9.39;100.00
27334;BME280;14817;57.104;-2.094;2023-11-19T02:40:58;97230.63;;;9.40;100.00
27334;BME280;14817;57.104;-2.094;2023-11-19T02:43:25;97268.97;;;9.46;100.00
27334;BME280;14817;57.104;-2.094;2023-11-19T02:45:51;97310.44;;;9.48;100.00
27334;BME280;14817;57.104;-2.094;2023-11-19T02:48:18;97205.47;;;9.48;100.00
27334;BME280;14817;57.104;-2.094;2023-11-19T02:50:45;97294.41;;;9.48;100.00
27334;BME280;14817;57.104;-2.094;2023-11-19T02:53:13;97388.88;;;9.54;100.00
27334;BME280;14817;57.104;-2.094;2023-11-19T02:55:40;97456.28;;;9.49;100.00
27334;BME280;14817;57.104;-2.094;2023-11-19T02:58:07;97560.28;;;9.51;100.00
27334;BME280;14817;57.104;-2.094;2023-11-19T03:00:46;97650.28;;;9.50;100.00
27334;BME280;14817;57.104;-2.094;2023-11-19T03:03:21;97751.34;;;9.53;100.00
27334;BME280;14817;57.104;-2.094;2023-11-19T03:05:49;97731.19;;;9.57;100.00
27334;BME280;14817;57.104;-2.094;2023-11-19T03:08:16;97769.03;;;9.54;100.00
27334;BME280;14817;57.104;-2.094;2023-11-19T03:10:46;97874.66;;;9.57;100.00
27334;BME280;14817;57.104;-2.094;2023-11-19T03:13:13;97867.25;;;9.59;100.00
27334;BME280;14817;57.104;-2.094;2023-11-19T03:15:46;97953.38;;;9.54;100.00
27334;BME280;14817;57.104;-2.094;2023-11-19T03:18:13;97972.72;;;9.56;100.00
27334;BME280;14817;57.104;-2.094;2023-11-19T03:20:40;97981.94;;;9.60;100.00
27334;BME280;14817;57.104;-2.094;2023-11-19T03:23:07;98224.06;;;9.61;100.00
27334;BME280;14817;57.104;-2.094;2023-11-19T03:25:33;97989.72;;;9.62;100.00
27334;BME280;14817;57.104;-2.094;2023-11-19T03:28:00;98032.50;;;9.62;100.00
27334;BME280;14817;57.104;-2.094;2023-11-19T03:30:29;98054.28;;;9.59;100.00
27334;BME280;14817;57.104;-2.094;2023-11-19T03:32:59;98100.75;;;9.65;100.00
27334;BME280;14817;57.104;-2.094;2023-11-19T03:35:29;98080.00;;;9.67;100.00
27334;BME280;14817;57.104;-2.094;2023-11-19T03:37:57;98119.66;;;9.70;100.00
27334;BME280;14817;57.104;-2.094;2023-11-19T03:40:23;98118.03;;;9.69;100.00
27334;BME280;14817;57.104;-2.094;2023-11-19T03:42:52;98126.44;;;9.66;100.00
27334;BME280;14817;57.104;-2.094;2023-11-19T03:45:19;98135.69;;;9.63;100.00
27334;BME280;14817;57.104;-2.094;2023-11-19T03:47:45;98167.75;;;9.63;100.00
27334;BME280;14817;57.104;-2.094;2023-11-19T03:50:12;98160.38;;;9.65;100.00
27334;BME280;14817;57.104;-2.094;2023-11-19T03:52:39;98170.00;;;9.59;100.00
27334;BME280;14817;57.104;-2.094;2023-11-19T03:55:09;98230.22;;;9.55;100.00
27334;BME280;14817;57.104;-2.094;2023-11-19T03:57:35;98205.78;;;9.58;100.00
27334;BME280;14817;57.104;-2.094;2023-11-19T04:00:02;98283.66;;;9.55;100.00
27334;BME280;14817;57.104;-2.094;2023-11-19T04:02:40;98219.75;;;9.54;100.00
27334;BME280;14817;57.104;-2.094;2023-11-19T04:05:07;98228.97;;;9.51;100.00
27334;BME280;14817;57.104;-2.094;2023-11-19T04:07:34;98249.34;;;9.52;100.00
27334;BME280;14817;57.104;-2.094;2023-11-19T04:10:01;98268.06;;;9.52;100.00
27334;BME280;14817;57.104;-2.094;2023-11-19T04:12:29;98289.63;;;9.51;100.00
27334;BME280;14817;57.104;-2.094;2023-11-19T04:14:56;98292.91;;;9.46;100.00
27334;BME280;14817;57.104;-2.094;2023-11-19T04:17:25;98301.97;;;9.52;100.00
27334;BME280;14817;57.104;-2.094;2023-11-19T04:19:54;98507.03;;;9.43;100.00
27334;BME280;14817;57.104;-2.094;2023-11-19T04:22:21;98336.47;;;9.47;100.00
27334;BME280;14817;57.104;-2.094;2023-11-19T04:24:47;98331.09;;;9.40;100.00
27334;BME280;14817;57.104;-2.094;2023-11-19T04:27:14;98341.56;;;9.35;100.00
27334;BME280;14817;57.104;-2.094;2023-11-19T04:29:41;98319.41;;;9.41;100.00
27334;BME280;14817;57.104;-2.094;2023-11-19T04:32:07;98312.00;;;9.43;100.00
27334;BME280;14817;57.104;-2.094;2023-11-19T04:34:34;98303.94;;;9.36;100.00
27334;BME280;14817;57.104;-2.094;2023-11-19T04:37:01;98316.88;;;9.33;100.00
27334;BME280;14817;57.104;-2.094;2023-11-19T04:39:39;98384.72;;;9.38;100.00
27334;BME280;14817;57.104;-2.094;2023-11-19T04:42:05;98278.91;;;9.37;100.00
27334;BME280;14817;57.104;-2.094;2023-11-19T04:44:33;98289.78;;;9.36;100.00
27334;BME280;14817;57.104;-2.094;2023-11-19T04:47:00;98287.88;;;9.30;100.00
27334;BME280;14817;57.104;-2.094;2023-11-19T04:49:27;98284.81;;;9.26;100.00
27334;BME280;14817;57.104;-2.094;2023-11-19T04:51:54;98278.47;;;9.34;100.00
27334;BME280;14817;57.104;-2.094;2023-11-19T04:54:21;98271.47;;;9.26;100.00
27334;BME280;14817;57.104;-2.094;2023-11-19T04:56:47;98246.59;;;9.26;100.00
27334;BME280;14817;57.104;-2.094;2023-11-19T04:59:15;98237.75;;;9.25;100.00
27334;BME280;14817;57.104;-2.094;2023-11-19T05:01:46;98280.47;;;9.25;100.00
27334;BME280;14817;57.104;-2.094;2023-11-19T05:04:13;98221.91;;;9.24;100.00
27334;BME280;14817;57.104;-2.094;2023-11-19T05:06:40;98222.34;;;9.20;100.00
27334;BME280;14817;57.104;-2.094;2023-11-19T05:09:07;98212.91;;;9.25;100.00
27334;BME280;14817;57.104;-2.094;2023-11-19T05:11:34;98199.34;;;9.26;100.00
27334;BME280;14817;57.104;-2.094;2023-11-19T05:14:04;98199.53;;;9.25;100.00
27334;BME280;14817;57.104;-2.094;2023-11-19T05:16:31;98176.75;;;9.22;100.00
27334;BME280;14817;57.104;-2.094;2023-11-19T05:18:58;98181.66;;;9.25;100.00
27334;BME280;14817;57.104;-2.094;2023-11-19T05:21:25;98174.09;;;9.29;100.00
27334;BME280;14817;57.104;-2.094;2023-11-19T05:23:52;98162.75;;;9.20;100.00
27334;BME280;14817;57.104;-2.094;2023-11-19T05:26:19;98143.03;;;9.28;100.00
27334;BME280;14817;57.104;-2.094;2023-11-19T05:28:46;98127.44;;;9.31;100.00
27334;BME280;14817;57.104;-2.094;2023-11-19T05:31:13;98113.06;;;9.32;100.00
27334;BME280;14817;57.104;-2.094;2023-11-19T05:33:39;98186.19;;;9.31;100.00
27334;BME280;14817;57.104;-2.094;2023-11-19T05:36:06;98075.06;;;9.30;100.00
27334;BME280;14817;57.104;-2.094;2023-11-19T05:38:35;98058.19;;;9.30;100.00
27334;BME280;14817;57.104;-2.094;2023-11-19T05:41:02;98035.81;;;9.31;100.00
27334;BME280;14817;57.104;-2.094;2023-11-19T05:43:29;98016.31;;;9.30;100.00
27334;BME280;14817;57.104;-2.094;2023-11-19T05:45:56;97978.28;;;9.22;100.00
27334;BME280;14817;57.104;-2.094;2023-11-19T05:48:25;97949.13;;;9.27;100.00
27334;BME280;14817;57.104;-2.094;2023-11-19T05:50:52;97910.31;;;9.24;100.00
27334;BME280;14817;57.104;-2.094;2023-11-19T05:53:20;97872.50;;;9.27;100.00
27334;BME280;14817;57.104;-2.094;2023-11-19T05:55:46;97832.25;;;9.22;100.00
27334;BME280;14817;57.104;-2.094;2023-11-19T05:58:24;97793.78;;;9.30;100.00
27334;BME280;14817;57.104;-2.094;2023-11-19T06:00:59;97739.56;;;9.29;100.00
27334;BME280;14817;57.104;-2.094;2023-11-19T06:03:27;97712.44;;;9.32;100.00
27334;BME280;14817;57.104;-2.094;2023-11-19T06:05:54;97657.78;;;9.35;100.00
27334;BME280;14817;57.104;-2.094;2023-11-19T06:08:21;97612.53;;;9.40;100.00
27334;BME280;14817;57.104;-2.094;2023-11-19T06:10:47;97546.44;;;9.35;100.00
27334;BME280;14817;57.104;-2.094;2023-11-19T06:13:16;97481.53;;;9.35;100.00
27334;BME280;14817;57.104;-2.094;2023-11-19T06:15:43;97410.44;;;9.34;100.00
27334;BME280;14817;57.104;-2.094;2023-11-19T06:18:10;97331.81;;;9.30;100.00
27334;BME280;14817;57.104;-2.094;2023-11-19T06:20:39;97242.88;;;9.29;100.00
27334;BME280;14817;57.104;-2.094;2023-11-19T06:23:09;97154.06;;;9.34;100.00
27334;BME280;14817;57.104;-2.094;2023-11-19T06:25:36;97103.81;;;9.31;100.00
27334;BME280;14817;57.104;-2.094;2023-11-19T06:28:03;97034.03;;;9.27;100.00
27334;BME280;14817;57.104;-2.094;2023-11-19T06:30:30;96977.38;;;9.37;100.00
27334;BME280;14817;57.104;-2.094;2023-11-19T06:32:59;96922.34;;;9.36;100.00
27334;BME280;14817;57.104;-2.094;2023-11-19T06:35:26;96896.22;;;9.38;100.00
27334;BME280;14817;57.104;-2.094;2023-11-19T06:37:55;96830.53;;;9.37;100.00
27334;BME280;14817;57.104;-2.094;2023-11-19T06:40:22;96778.72;;;9.38;100.00
27334;BME280;14817;57.104;-2.094;2023-11-19T06:42:49;96729.63;;;9.39;100.00
27334;BME280;14817;57.104;-2.094;2023-11-19T06:45:15;96680.50;;;9.40;100.00
27334;BME280;14817;57.104;-2.094;2023-11-19T06:47:42;96638.50;;;9.35;100.00
27334;BME280;14817;57.104;-2.094;2023-11-19T06:50:09;96599.75;;;9.33;100.00
27334;BME280;14817;57.104;-2.094;2023-11-19T06:52:35;96560.81;;;9.37;100.00
27334;BME280;14817;57.104;-2.094;2023-11-19T06:55:04;96522.16;;;9.39;100.00
27334;BME280;14817;57.104;-2.094;2023-11-19T06:57:34;96514.13;;;9.39;100.00
27334;BME280;14817;57.104;-2.094;2023-11-19T07:00:01;96475.63;;;9.35;100.00
27334;BME280;14817;57.104;-2.094;2023-11-19T07:02:28;96458.53;;;9.36;100.00
27334;BME280;14817;57.104;-2.094;2023-11-19T07:04:55;96432.97;;;9.40;100.00
27334;BME280;14817;57.104;-2.094;2023-11-19T07:07:21;96401.09;;;9.34;100.00
27334;BME280;14817;57.104;-2.094;2023-11-19T07:09:48;96462.59;;;9.39;100.00
27334;BME280;14817;57.104;-2.094;2023-11-19T07:12:15;96446.72;;;9.32;100.00
27334;BME280;14817;57.104;-2.094;2023-11-19T07:14:42;96448.84;;;9.30;100.00
27334;BME280;14817;57.104;-2.094;2023-11-19T07:17:08;96411.16;;;9.27;100.00
27334;BME280;14817;57.104;-2.094;2023-11-19T07:19:37;96381.00;;;9.26;100.00
27334;BME280;14817;57.104;-2.094;2023-11-19T07:22:05;96365.25;;;9.30;100.00
27334;BME280;14817;57.104;-2.094;2023-11-19T07:24:33;96324.94;;;9.26;100.00
27334;BME280;14817;57.104;-2.094;2023-11-19T07:26:59;96303.06;;;9.29;100.00
27334;BME280;14817;57.104;-2.094;2023-11-19T07:29:26;96366.00;;;9.25;100.00
27334;BME280;14817;57.104;-2.094;2023-11-19T07:31:55;96363.56;;;9.24;100.00
27334;BME280;14817;57.104;-2.094;2023-11-19T07:34:23;96354.03;;;9.28;100.00
27334;BME280;14817;57.104;-2.094;2023-11-19T07:36:51;96336.41;;;9.27;100.00
27334;BME280;14817;57.104;-2.094;2023-11-19T07:39:18;96343.34;;;9.28;100.00
27334;BME280;14817;57.104;-2.094;2023-11-19T07:41:47;96335.03;;;9.24;100.00
27334;BME280;14817;57.104;-2.094;2023-11-19T07:44:14;96310.50;;;9.27;100.00
27334;BME280;14817;57.104;-2.094;2023-11-19T07:46:40;96275.56;;;9.29;100.00
27334;BME280;14817;57.104;-2.094;2023-11-19T07:49:08;96245.69;;;9.32;100.00
27334;BME280;14817;57.104;-2.094;2023-11-19T07:51:36;96223.03;;;9.34;100.00
27334;BME280;14817;57.104;-2.094;2023-11-19T07:54:03;96205.66;;;9.32;100.00
27334;BME280;14817;57.104;-2.094;2023-11-19T07:56:31;96200.03;;;9.28;100.00
27334;BME280;14817;57.104;-2.094;2023-11-19T07:59:01;96176.78;;;9.29;100.00
27334;BME280;14817;57.104;-2.094;2023-11-19T08:01:27;96162.44;;;9.35;100.00
27334;BME280;14817;57.104;-2.094;2023-11-19T08:03:54;96149.88;;;9.35;100.00
27334;BME280;14817;57.104;-2.094;2023-11-19T08:06:24;96144.31;;;9.37;100.00
27334;BME280;14817;57.104;-2.094;2023-11-19T08:08:51;96128.53;;;9.35;100.00
27334;BME280;14817;57.104;-2.094;2023-11-19T08:11:18;96109.28;;;9.33;100.00
27334;BME280;14817;57.104;-2.094;2023-11-19T08:13:46;96080.50;;;9.40;100.00
27334;BME280;14817;57.104;-2.094;2023-11-19T08:16:13;96033.56;;;9.45;100.00
27334;BME280;14817;57.104;-2.094;2023-11-19T08:18:42;95978.94;;;9.63;100.00
27334;BME280;14817;57.104;-2.094;2023-11-19T08:21:09;95902.75;;;9.50;100.00
27334;BME280;14817;57.104;-2.094;2023-11-19T08:23:37;95786.81;;;9.40;100.00
27334;BME280;14817;57.104;-2.094;2023-11-19T08:26:05;95626.91;;;9.49;100.00
27334;BME280;14817;57.104;-2.094;2023-11-19T08:28:31;95449.63;;;9.45;100.00
27334;BME280;14817;57.104;-2.094;2023-11-19T08:31:01;95254.25;;;9.43;100.00
27334;BME280;14817;57.104;-2.094;2023-11-19T08:33:27;95145.34;;;9.40;100.00
27334;BME280;14817;57.104;-2.094;2023-11-19T08:35:54;95096.19;;;9.46;100.00
27334;BME280;14817;57.104;-2.094;2023-11-19T08:38:21;94968.31;;;9.45;100.00
27334;BME280;14817;57.104;-2.094;2023-11-19T08:40:51;94907.94;;;9.49;100.00
27334;BME280;14817;57.104;-2.094;2023-11-19T08:43:18;95025.41;;;9.49;100.00
27334;BME280;14817;57.104;-2.094;2023-11-19T08:45:45;95034.78;;;9.46;100.00
27334;BME280;14817;57.104;-2.094;2023-11-19T08:48:11;95009.91;;;9.51;100.00
27334;BME280;14817;57.104;-2.094;2023-11-19T08:50:38;94972.88;;;9.44;100.00
27334;BME280;14817;57.104;-2.094;2023-11-19T08:53:05;94954.00;;;9.65;100.00
27334;BME280;14817;57.104;-2.094;2023-11-19T08:55:33;94921.44;;;9.63;100.00
27334;BME280;14817;57.104;-2.094;2023-11-19T08:58:00;94885.63;;;9.64;100.00
27334;BME280;14817;57.104;-2.094;2023-11-19T09:00:27;94871.47;;;9.63;100.00
27334;BME280;14817;57.104;-2.094;2023-11-19T09:02:54;94839.72;;;9.61;100.00
27334;BME280;14817;57.104;-2.094;2023-11-19T09:05:20;94821.03;;;9.61;100.00
27334;BME280;14817;57.104;-2.094;2023-11-19T09:07:47;94806.16;;;9.55;100.00
27334;BME280;14817;57.104;-2.094;2023-11-19T09:10:16;94771.31;;;9.66;100.00
27334;BME280;14817;57.104;-2.094;2023-11-19T09:12:42;94754.50;;;9.84;100.00
27334;BME280;14817;57.104;-2.094;2023-11-19T09:15:09;94709.16;;;10.31;100.00
27334;BME280;14817;57.104;-2.094;2023-11-19T09:17:37;94692.31;;;10.30;100.00
27334;BME280;14817;57.104;-2.094;2023-11-19T09:20:04;94657.09;;;10.56;100.00
27334;BME280;14817;57.104;-2.094;2023-11-19T09:22:30;94631.94;;;10.43;100.00
27334;BME280;14817;57.104;-2.094;2023-11-19T09:24:57;94631.56;;;10.50;100.00
27334;BME280;14817;57.104;-2.094;2023-11-19T09:27:26;94681.66;;;10.44;100.00
27334;BME280;14817;57.104;-2.094;2023-11-19T09:29:54;94709.16;;;10.31;100.00
27334;BME280;14817;57.104;-2.094;2023-11-19T09:32:24;94767.72;;;10.27;100.00
27334;BME280;14817;57.104;-2.094;2023-11-19T09:34:51;95090.63;;;10.25;100.00
27334;BME280;14817;57.104;-2.094;2023-11-19T09:37:18;95256.06;;;10.32;100.00
27334;BME280;14817;57.104;-2.094;2023-11-19T09:39:48;95469.16;;;10.31;100.00
27334;BME280;14817;57.104;-2.094;2023-11-19T09:42:14;95556.56;;;10.31;100.00
27334;BME280;14817;57.104;-2.094;2023-11-19T09:44:42;95583.31;;;10.31;100.00
27334;BME280;14817;57.104;-2.094;2023-11-19T09:47:09;95649.34;;;10.35;100.00
27334;BME280;14817;57.104;-2.094;2023-11-19T09:49:37;95973.97;;;10.50;100.00
27334;BME280;14817;57.104;-2.094;2023-11-19T09:52:05;95990.38;;;11.10;100.00
27334;BME280;14817;57.104;-2.094;2023-11-19T09:54:31;95983.09;;;11.51;100.00
27334;BME280;14817;57.104;-2.094;2023-11-19T09:56:59;96055.97;;;11.22;100.00
27334;BME280;14817;57.104;-2.094;2023-11-19T09:59:29;96253.91;;;10.81;100.00
27334;BME280;14817;57.104;-2.094;2023-11-19T10:01:57;96376.44;;;10.74;100.00
27334;BME280;14817;57.104;-2.094;2023-11-19T10:04:24;96453.50;;;10.72;100.00
27334;BME280;14817;57.104;-2.094;2023-11-19T10:06:52;96528.06;;;10.63;100.00
27334;BME280;14817;57.104;-2.094;2023-11-19T10:09:18;96594.34;;;10.56;100.00
27334;BME280;14817;57.104;-2.094;2023-11-19T10:11:45;96639.63;;;10.63;100.00
27334;BME280;14817;57.104;-2.094;2023-11-19T10:14:12;96672.13;;;10.72;100.00
27334;BME280;14817;57.104;-2.094;2023-11-19T10:16:39;96706.16;;;10.76;100.00
27334;BME280;14817;57.104;-2.094;2023-11-19T10:19:07;96736.81;;;10.69;100.00
27334;BME280;14817;57.104;-2.094;2023-11-19T10:21:33;96766.56;;;10.72;100.00
27334;BME280;14817;57.104;-2.094;2023-11-19T10:24:01;96798.75;;;10.77;100.00
27334;BME280;14817;57.104;-2.094;2023-11-19T10:26:28;96834.94;;;10.80;100.00
27334;BME280;14817;57.104;-2.094;2023-11-19T10:28:55;96846.22;;;10.82;100.00
27334;BME280;14817;57.104;-2.094;2023-11-19T10:31:22;96890.66;;;10.83;100.00
27334;BME280;14817;57.104;-2.094;2023-11-19T10:33:53;96968.19;;;10.78;100.00
27334;BME280;14817;57.104;-2.094;2023-11-19T10:36:20;97001.31;;;10.89;100.00
27334;BME280;14817;57.104;-2.094;2023-11-19T10:38:53;97013.41;;;10.91;100.00
27334;BME280;14817;57.104;-2.094;2023-11-19T10:41:26;97027.59;;;10.92;100.00
27334;BME280;14817;57.104;-2.094;2023-11-19T10:43:53;97029.69;;;10.90;100.00
27334;BME280;14817;57.104;-2.094;2023-11-19T10:46:19;97491.91;;;10.96;100.00
27334;BME280;14817;57.104;-2.094;2023-11-19T10:48:49;97506.84;;;11.03;100.00
27334;BME280;14817;57.104;-2.094;2023-11-19T10:51:19;97524.06;;;10.96;100.00
27334;BME280;14817;57.104;-2.094;2023-11-19T10:53:50;97542.25;;;11.06;100.00
27334;BME280;14817;57.104;-2.094;2023-11-19T10:56:17;97551.09;;;11.06;100.00
27334;BME280;14817;57.104;-2.094;2023-11-19T10:58:46;97561.00;;;11.06;100.00
27334;BME280;14817;57.104;-2.094;2023-11-19T11:01:16;97569.63;;;11.08;100.00
27334;BME280;14817;57.104;-2.094;2023-11-19T11:03:46;97613.09;;;10.91;100.00
27334;BME280;14817;57.104;-2.094;2023-11-19T11:06:14;97573.56;;;11.05;100.00
27334;BME280;14817;57.104;-2.094;2023-11-19T11:08:40;97589.28;;;11.01;100.00
27334;BME280;14817;57.104;-2.094;2023-11-19T11:11:08;97617.19;;;10.94;100.00
27334;BME280;14817;57.104;-2.094;2023-11-19T11:13:36;97629.78;;;11.05;100.00
27334;BME280;14817;57.104;-2.094;2023-11-19T11:16:06;97646.44;;;11.07;100.00
27334;BME280;14817;57.104;-2.094;2023-11-19T11:18:34;97652.28;;;11.04;100.00
27334;BME280;14817;57.104;-2.094;2023-11-19T11:21:11;97635.66;;;11.14;100.00
27334;BME280;14817;57.104;-2.094;2023-11-19T11:23:47;97655.22;;;11.14;100.00
27334;BME280;14817;57.104;-2.094;2023-11-19T11:27:06;97663.38;;;11.19;100.00
27334;BME280;14817;57.104;-2.094;2023-11-19T11:29:14;97672.09;;;11.15;100.00
27334;BME280;14817;57.104;-2.094;2023-11-19T11:36:53;97718.63;;;11.20;100.00
27334;BME280;14817;57.104;-2.094;2023-11-19T11:39:24;97698.00;;;11.21;100.00
27334;BME280;14817;57.104;-2.094;2023-11-19T11:48:15;97645.53;;;11.13;100.00
27334;BME280;14817;57.104;-2.094;2023-11-19T11:50:17;97659.78;;;11.14;100.00
27334;BME280;14817;57.104;-2.094;2023-11-19T11:55:35;97702.84;;;11.12;100.00
27334;BME280;14817;57.104;-2.094;2023-11-19T11:58:05;97714.59;;;11.11;100.00
27334;BME280;14817;57.104;-2.094;2023-11-19T12:00:32;97724.28;;;11.12;100.00
27334;BME280;14817;57.104;-2.094;2023-11-19T12:03:00;97762.81;;;11.11;100.00
27334;BME280;14817;57.104;-2.094;2023-11-19T12:05:27;97800.31;;;11.11;100.00
27334;BME280;14817;57.104;-2.094;2023-11-19T12:07:59;97812.06;;;11.10;100.00
27334;BME280;14817;57.104;-2.094;2023-11-19T12:10:31;97814.81;;;11.03;100.00
27334;BME280;14817;57.104;-2.094;2023-11-19T12:12:59;97821.81;;;11.04;100.00
27334;BME280;14817;57.104;-2.094;2023-11-19T12:15:26;97835.78;;;11.07;100.00
27334;BME280;14817;57.104;-2.094;2023-11-19T12:17:54;97851.66;;;11.08;100.00
27334;BME280;14817;57.104;-2.094;2023-11-19T12:20:25;97863.38;;;11.07;100.00
27334;BME280;14817;57.104;-2.094;2023-11-19T12:22:55;97879.44;;;11.07;100.00
27334;BME280;14817;57.104;-2.094;2023-11-19T12:25:22;97876.19;;;11.05;100.00
27334;BME280;14817;57.104;-2.094;2023-11-19T12:27:50;97879.91;;;11.04;100.00
27334;BME280;14817;57.104;-2.094;2023-11-19T12:30:17;97899.69;;;11.03;100.00
27334;BME280;14817;57.104;-2.094;2023-11-19T12:32:47;97900.72;;;11.02;100.00
27334;BME280;14817;57.104;-2.094;2023-11-19T12:35:14;97914.13;;;11.02;100.00
27334;BME280;14817;57.104;-2.094;2023-11-19T12:37:47;97914.94;;;11.02;100.00
27334;BME280;14817;57.104;-2.094;2023-11-19T12:42:41;97906.69;;;11.04;100.00
27334;BME280;14817;57.104;-2.094;2023-11-19T12:45:08;97871.19;;;11.09;100.00
27334;BME280;14817;57.104;-2.094;2023-11-19T12:47:37;97862.97;;;11.10;100.00
27334;BME280;14817;57.104;-2.094;2023-11-19T12:50:04;97865.63;;;11.10;100.00
27334;BME280;14817;57.104;-2.094;2023-11-19T12:52:30;97848.09;;;11.14;100.00
27334;BME280;14817;57.104;-2.094;2023-11-19T12:54:57;97847.19;;;11.20;100.00
27334;BME280;14817;57.104;-2.094;2023-11-19T12:57:46;97837.22;;;11.28;100.00
27334;BME280;14817;57.104;-2.094;2023-11-19T13:00:18;97839.69;;;11.29;100.00
27334;BME280;14817;57.104;-2.094;2023-11-19T13:02:51;97828.28;;;11.34;100.00
27334;BME280;14817;57.104;-2.094;2023-11-19T13:07:48;97810.94;;;11.36;100.00
27334;BME280;14817;57.104;-2.094;2023-11-19T13:10:15;97803.50;;;11.38;100.00
27334;BME280;14817;57.104;-2.094;2023-11-19T13:12:59;97803.28;;;11.40;100.00